Miamisburg, Ohio
Current Conditions -  °F | °C
As of 6:53 PM on Tuesday 25 Nov 2014 (Local Time) from KMGY Reporting Station
Scattered Clouds Scattered Clouds  
Wind Chill: 29°   Ceiling: Unl
Heat Index: 34°   Visibility: 10mi
Dew Point: 27°   Wind: 6mph
Humidity: 75%   Direction: 340°NNW
Pressure: 30.16"   Gusts: NA
Location:  39.64°N, 84.29°W
Report Text: KMGY 252353Z AUTO 34005KT 10SM SCT034 01/M03 A3016 RMK AO2 SLP219 T00111028 10050 20011 53017
Loading
Personal Weather Stations






























Interactive Weather Map New forecast layout! Learn more

10-Day Weather Forecast

Advertisements
Track Severe Weather on mobile